Elk Point, Canada
Current Conditions -  °F | °C
As of 6:00 PM on Wednesday 17 Dec 2014 (Local Time) from CYOD Reporting Station
Overcast Overcast  
Wind Chill: -12°   Ceiling: 600
Heat Index: -7°   Visibility: 10mi
Dew Point: -8°   Wind: 7mph
Humidity: 93%   Direction: 170°S
Pressure: 29.91"   Gusts: NA
Location:  53.9°N, 110.9°W
Report Text: CYOD 180100Z 17006KT 10SM OVC006 M07/M08 A2991 RMK ST8 SLP165
Loading
Personal Weather Stations






























Interactive Weather Map New forecast layout! Learn more

10-Day Weather Forecast

Advertisements
Track Severe Weather on mobile